Terminal Aerodrome Forecast
Issued by NWS Wichita, KS

Home | Current Version | Previous Version | Graphics & Text | Print | Product List | Glossary On
Versions: 1 2 3 4 5 6 7 8 9 10 11 12 13 14 15 16 17 18 19 20
000
FTUS43 KICT 080500
TAFICT
TAF
KICT 080520Z 0806/0906 24011KT P6SM SCT100 BKN200
     FM080700 36023G35KT P6SM SCT100 BKN200
     FM080900 02015G22KT P6SM BKN120
     FM082200 01011KT P6SM BKN200
     FM090300 VRB04KT P6SM BKN150=

USA.gov is the U.S. government's official web portal to all federal, state and local government web resources and services.